Saturday, November 18, 2017, 7:09 AM EST
Back to Local

KESN, Easton / Newman Field

Location: Easton, MD, United States Lat: 38.8
Local Time: 7:09 AM EST (12:09 GMT) Lon: -76.067
Time Zone: US/Eastern Elev: 72 ft

Show me the last for .
Show Decoded

2017-11-18 06:50 METAR KESN 181150Z 18006KT 10SM SCT080 03/01 A3001 =
2017-11-18 05:52 METAR KESN 181052Z 19004KT 10SM SCT080 03/00 A3004 =
2017-11-18 04:35 METAR KESN 180935Z AUTO 17005KT 10SM CLR 02/01 A3006 RMK AO2 T00200006 =
2017-11-18 04:16 METAR KESN 180916Z AUTO 18003KT 10SM CLR 02/01 A3007 RMK AO2 T00200006 =
2017-11-18 03:56 METAR KESN 180856Z AUTO 00000KT 10SM CLR 02/00 A3007 RMK AO2 T00200000 =
2017-11-18 03:36 METAR KESN 180836Z AUTO 19003KT 10SM CLR 02/00 A3006 RMK AO2 T00171003 =
2017-11-18 03:16 METAR KESN 180816Z AUTO 00000KT 10SM CLR 03/00 A3007 RMK AO2 T00320003 =
2017-11-18 02:56 METAR KESN 180756Z AUTO 00000KT 10SM CLR 03/00 A3008 RMK AO2 T00301002 =
2017-11-18 02:36 METAR KESN 180736Z AUTO 18003KT 10SM CLR 02/00 A3009 RMK AO2 T00231003 =
2017-11-18 02:16 METAR KESN 180716Z AUTO 00000KT 10SM CLR 03/00 A3010 RMK AO2 T00321002 =
2017-11-18 01:56 METAR KESN 180656Z AUTO 19003KT 10SM CLR 03/00 A3010 RMK AO2 T00301001 =
2017-11-18 01:36 METAR KESN 180636Z AUTO 17003KT 10SM CLR 02/00 A3010 RMK AO2 T00221004 =
2017-11-18 01:16 METAR KESN 180616Z AUTO 00000KT 10SM CLR 02/M01 A3011 RMK AO2 T00191008 =
2017-11-18 00:56 METAR KESN 180556Z AUTO 18003KT 10SM CLR 01/M01 A3012 RMK AO2 T00081009 10045
                 20006 401150006 =
2017-11-18 00:36 METAR KESN 180536Z AUTO 00000KT 10SM CLR 01/M01 A3013 RMK AO2 T00071010 =
2017-11-18 00:16 METAR KESN 180516Z AUTO 00000KT 10SM CLR 01/M01 A3013 RMK AO2 T00091007 =
2017-11-17 23:56 METAR KESN 180456Z AUTO 00000KT 10SM CLR 02/M01 A3014 RMK AO2 T00161006 =
2017-11-17 23:36 METAR KESN 180436Z AUTO 00000KT 10SM CLR 01/M01 A3014 RMK AO2 T00111006 =
2017-11-17 23:16 METAR KESN 180416Z AUTO 00000KT 10SM CLR 01/M01 A3014 RMK AO2 T00111007 =
2017-11-17 22:56 METAR KESN 180356Z AUTO 00000KT 10SM CLR 01/00 A3014 RMK AO2 T00131005 =
2017-11-17 22:36 METAR KESN 180336Z AUTO 00000KT 10SM CLR 02/M01 A3016 RMK AO2 T00181006 =
2017-11-17 22:16 METAR KESN 180316Z AUTO 00000KT 10SM CLR 02/00 A3016 RMK AO2 T00231003 =
2017-11-17 21:56 METAR KESN 180256Z AUTO 00000KT 10SM CLR 03/00 A3016 RMK AO2 T00251003 =
2017-11-17 21:50 METAR KESN 180250Z 00000KT 10SM SKC 02/M01 A3016 =
2017-11-17 20:45 METAR KESN 180145Z 00000KT 10SM SKC 03/00 A3016 =
2017-11-17 19:50 METAR KESN 180050Z 00000KT 10SM SKC 03/M01 A3017 =
2017-11-17 18:45 METAR KESN 172345Z 00000KT 10SM SKC 04/M01 A3018 =
2017-11-17 17:45 METAR KESN 172245Z 00000KT 10SM SKC 05/M01 A3019 =
2017-11-17 16:50 METAR KESN 172150Z 00000KT 10SM SCT100 08/M01 A3018 =
2017-11-17 15:50 METAR KESN 172050Z 34004KT 10SM SCT120 09/M02 A3018 =
2017-11-17 14:50 METAR KESN 171950Z 31008KT 10SM FEW120 11/M03 A3018 =
2017-11-17 13:59 METAR KESN 171859Z 30004KT 10SM FEW100 11/M02 A3018 =
2017-11-17 12:50 METAR KESN 171750Z 33011G16KT 10SM SCT250 10/M02 A3019 =
2017-11-17 11:50 METAR KESN 171650Z 32015G20KT 10SM SKC 10/M02 A3021 =
2017-11-17 10:50 METAR KESN 171550Z 33010G18KT 10SM SKC 09/M01 A3023 =
2017-11-17 09:50 METAR KESN 171450Z 34013G19KT 10SM SKC 09/M02 A3023 =
2017-11-17 08:50 METAR KESN 171350Z 34015G19KT 10SM SKC 08/M02 A3022 =
2017-11-17 07:50 METAR KESN 171250Z 33011G16KT 10SM SKC 07/M01 A3021 =

Support USWX by starting your Amazon purchase here.